Time;durP1;ratioP1;P1;durP2;ratioP2;P2;SDS_P1;SDS_P2;PMS_P1;PMS_P2;Temp;Humidity;BMP_temperature;BMP_pressure;BME280_temperature;BME280_humidity;BME280_pressure;Samples;Min_cycle;Max_cycle;Signal;HPM_P1;HPM_P2
2022/11/13 00:00:32;;;;;;;17.35;14.55;;;;;;;;;;5142278;27;20250;-68
2022/11/13 00:02:58;;;;;;;22.17;13.70;;;;;;;;;;5146030;27;20037;-68
2022/11/13 00:05:24;;;;;;;16.02;14.07;;;;;;;;;;5129697;27;20034;-68
2022/11/13 00:07:51;;;;;;;17.75;13.95;;;;;;;;;;5137023;27;20066;-68
2022/11/13 00:10:17;;;;;;;15.60;13.00;;;;;;;;;;5126300;27;20488;-68
2022/11/13 00:12:43;;;;;;;25.85;15.13;;;;;;;;;;5128789;27;20099;-68
2022/11/13 00:15:09;;;;;;;24.27;13.65;;;;;;;;;;5149470;27;20039;-68
2022/11/13 00:17:36;;;;;;;18.00;13.52;;;;;;;;;;5150464;27;20030;-68
2022/11/13 00:20:02;;;;;;;17.95;14.93;;;;;;;;;;5135960;27;20038;-68
2022/11/13 00:22:28;;;;;;;20.88;15.13;;;;;;;;;;5151600;27;20038;-67
2022/11/13 00:24:54;;;;;;;19.55;15.13;;;;;;;;;;5134809;27;20162;-67
2022/11/13 00:27:20;;;;;;;21.67;15.15;;;;;;;;;;5152133;27;20043;-67
2022/11/13 00:29:46;;;;;;;19.48;13.95;;;;;;;;;;5144349;27;20125;-67
2022/11/13 00:32:12;;;;;;;21.02;13.98;;;;;;;;;;5143379;27;20039;-68
2022/11/13 00:34:38;;;;;;;20.55;13.95;;;;;;;;;;5125044;27;20480;-67
2022/11/13 00:37:04;;;;;;;21.30;15.45;;;;;;;;;;5148416;27;20138;-67
2022/11/13 00:39:31;;;;;;;19.65;14.80;;;;;;;;;;5145010;27;20058;-67
2022/11/13 00:41:57;;;;;;;18.05;14.18;;;;;;;;;;5148849;27;20042;-67
2022/11/13 00:44:23;;;;;;;17.88;13.63;;;;;;;;;;5124072;27;20046;-67
2022/11/13 00:46:49;;;;;;;17.50;13.43;;;;;;;;;;5139217;27;20038;-67
2022/11/13 00:49:16;;;;;;;17.23;13.32;;;;;;;;;;5152498;27;20039;-67
2022/11/13 00:51:42;;;;;;;18.38;13.00;;;;;;;;;;5139921;27;20506;-67
2022/11/13 00:54:08;;;;;;;16.00;14.30;;;;;;;;;;5142212;27;20070;-67
2022/11/13 00:56:35;;;;;;;18.63;14.30;;;;;;;;;;5138577;27;20039;-67
2022/11/13 00:59:01;;;;;;;17.00;13.27;;;;;;;;;;5143544;27;20035;-68
2022/11/13 01:01:27;;;;;;;16.73;14.27;;;;;;;;;;5147934;27;20043;-67
2022/11/13 01:03:53;;;;;;;19.85;14.93;;;;;;;;;;5128968;27;20651;-67
2022/11/13 01:06:21;;;;;;;21.27;14.80;;;;;;;;;;5143229;27;20043;-67
2022/11/13 01:08:47;;;;;;;17.45;13.85;;;;;;;;;;5145310;27;20038;-67
2022/11/13 01:11:18;;;;;;;17.70;13.85;;;;;;;;;;5149435;27;20038;-64
2022/11/13 01:13:45;;;;;;;19.30;13.52;;;;;;;;;;5146227;27;20074;-64
2022/11/13 01:16:12;;;;;;;17.90;14.13;;;;;;;;;;5145774;27;20423;-64
2022/11/13 01:18:40;;;;;;;17.80;12.82;;;;;;;;;;5145592;27;20051;-64
2022/11/13 01:21:07;;;;;;;18.58;13.55;;;;;;;;;;5146002;27;20034;-64
2022/11/13 01:23:33;;;;;;;19.42;13.13;;;;;;;;;;5126691;27;20126;-64
2022/11/13 01:26:19;;;;;;;18.50;14.05;;;;;;;;;;5128037;27;20035;-63
2022/11/13 01:28:46;;;;;;;20.05;13.85;;;;;;;;;;5126396;27;20711;-64
2022/11/13 01:31:14;;;;;;;18.65;13.65;;;;;;;;;;5148542;27;20062;-64
2022/11/13 01:33:40;;;;;;;19.15;13.90;;;;;;;;;;5126436;27;20041;-63
2022/11/13 01:36:08;;;;;;;15.73;12.25;;;;;;;;;;5145439;27;20042;-64
2022/11/13 01:38:34;;;;;;;17.42;13.32;;;;;;;;;;5144043;27;20043;-64
2022/11/13 01:41:00;;;;;;;16.48;12.50;;;;;;;;;;5149276;27;20149;-64
2022/11/13 01:43:28;;;;;;;18.27;13.07;;;;;;;;;;5148345;27;20373;-64
2022/11/13 01:45:57;;;;;;;19.25;14.95;;;;;;;;;;5138191;27;20047;-64
2022/11/13 01:48:26;;;;;;;18.80;14.68;;;;;;;;;;5143150;27;20398;-63
2022/11/13 01:50:53;;;;;;;17.73;13.23;;;;;;;;;;5138588;27;20118;-64
2022/11/13 01:53:19;;;;;;;17.95;13.85;;;;;;;;;;5146834;27;20085;-64
2022/11/13 01:55:45;;;;;;;17.38;12.25;;;;;;;;;;5136913;27;20043;-64
2022/11/13 01:58:12;;;;;;;17.67;13.18;;;;;;;;;;5118848;27;20039;-64
2022/11/13 02:00:38;;;;;;;16.73;13.63;;;;;;;;;;5147017;27;20087;-64
2022/11/13 02:03:04;;;;;;;18.30;14.65;;;;;;;;;;5123489;27;20415;-64
2022/11/13 02:05:30;;;;;;;17.58;12.93;;;;;;;;;;5126434;27;20238;-64
2022/11/13 02:07:57;;;;;;;17.08;13.68;;;;;;;;;;5145120;27;20046;-63
2022/11/13 02:10:23;;;;;;;16.10;13.02;;;;;;;;;;5132119;27;20444;-64
2022/11/13 02:12:50;;;;;;;16.08;12.48;;;;;;;;;;5122696;27;20050;-63
2022/11/13 02:15:17;;;;;;;13.80;11.18;;;;;;;;;;5145873;27;20031;-63
2022/11/13 02:18:09;;;;;;;17.85;13.65;;;;;;;;;;5148363;27;20403;-63
2022/11/13 02:20:48;;;;;;;16.08;12.80;;;;;;;;;;5140416;27;20479;-64
2022/11/13 02:23:14;;;;;;;18.33;13.57;;;;;;;;;;5147893;27;20071;-63
2022/11/13 02:25:41;;;;;;;16.73;12.75;;;;;;;;;;5141739;27;20388;-63
2022/11/13 02:28:07;;;;;;;15.88;13.25;;;;;;;;;;5148135;27;20437;-64
2022/11/13 02:30:34;;;;;;;19.05;12.65;;;;;;;;;;5128796;27;20043;-64
2022/11/13 02:33:00;;;;;;;19.70;13.25;;;;;;;;;;5134963;27;20499;-64
2022/11/13 02:35:31;;;;;;;17.20;13.77;;;;;;;;;;5122034;27;20076;-63
2022/11/13 02:37:59;;;;;;;21.27;14.50;;;;;;;;;;5136774;27;20042;-64
2022/11/13 02:40:25;;;;;;;16.08;13.80;;;;;;;;;;5142625;27;20046;-63
2022/11/13 02:42:51;;;;;;;22.10;13.55;;;;;;;;;;5147265;27;20474;-64
2022/11/13 02:45:17;;;;;;;19.15;14.52;;;;;;;;;;5126244;27;20077;-64
2022/11/13 02:47:43;;;;;;;17.55;14.35;;;;;;;;;;5136290;27;20122;-64
2022/11/13 02:50:10;;;;;;;16.38;14.00;;;;;;;;;;5144939;27;20462;-64
2022/11/13 02:52:36;;;;;;;17.73;13.93;;;;;;;;;;5125837;27;20078;-64
2022/11/13 02:55:02;;;;;;;16.80;12.93;;;;;;;;;;5131018;27;20090;-64
2022/11/13 02:57:29;;;;;;;15.88;12.90;;;;;;;;;;5119312;27;20035;-64
2022/11/13 02:59:55;;;;;;;17.50;14.20;;;;;;;;;;5124059;27;20073;-63
2022/11/13 03:02:21;;;;;;;17.45;14.25;;;;;;;;;;5124854;27;20119;-64
2022/11/13 03:04:47;;;;;;;16.45;12.93;;;;;;;;;;5117735;27;20395;-64
2022/11/13 03:07:13;;;;;;;17.08;13.77;;;;;;;;;;5101142;27;20456;-64
2022/11/13 03:09:40;;;;;;;16.00;13.35;;;;;;;;;;5105734;27;20058;-64
2022/11/13 03:12:09;;;;;;;18.08;14.18;;;;;;;;;;5110165;28;20075;-64
2022/11/13 03:14:36;;;;;;;20.75;15.48;;;;;;;;;;5117988;27;20027;-64
2022/11/13 03:17:02;;;;;;;17.60;13.55;;;;;;;;;;5115238;27;20035;-64
2022/11/13 03:19:28;;;;;;;16.75;13.40;;;;;;;;;;5101902;27;20424;-64
2022/11/13 03:21:54;;;;;;;24.08;15.52;;;;;;;;;;5125680;27;20633;-64
2022/11/13 03:24:20;;;;;;;21.95;14.13;;;;;;;;;;5118981;27;20054;-64
2022/11/13 03:26:46;;;;;;;18.95;15.02;;;;;;;;;;5108576;27;20035;-64
2022/11/13 03:29:13;;;;;;;23.52;15.55;;;;;;;;;;5122698;27;20035;-64
2022/11/13 03:31:39;;;;;;;19.92;14.38;;;;;;;;;;5124580;27;20078;-64
2022/11/13 03:34:05;;;;;;;19.77;14.77;;;;;;;;;;5123652;27;20067;-64
2022/11/13 03:36:31;;;;;;;19.35;14.40;;;;;;;;;;5121869;27;20039;-64
2022/11/13 03:38:57;;;;;;;17.17;14.27;;;;;;;;;;5116571;27;20038;-64
2022/11/13 03:41:23;;;;;;;20.25;15.20;;;;;;;;;;5110074;27;20118;-64
2022/11/13 03:43:49;;;;;;;18.83;13.68;;;;;;;;;;5124368;27;20598;-64
2022/11/13 03:46:16;;;;;;;21.42;15.70;;;;;;;;;;5108588;27;20106;-64
2022/11/13 03:48:42;;;;;;;19.42;16.23;;;;;;;;;;5117605;27;20047;-64
2022/11/13 03:51:08;;;;;;;19.55;15.10;;;;;;;;;;5107401;28;20045;-64
2022/11/13 03:53:34;;;;;;;22.13;16.45;;;;;;;;;;5124553;28;20044;-64
2022/11/13 03:56:00;;;;;;;20.40;15.10;;;;;;;;;;5120575;28;20051;-64
2022/11/13 03:58:26;;;;;;;19.48;15.38;;;;;;;;;;5122013;28;20039;-64
2022/11/13 04:00:53;;;;;;;21.25;14.82;;;;;;;;;;5123961;28;20035;-64
2022/11/13 04:03:20;;;;;;;20.02;14.75;;;;;;;;;;5116143;28;20484;-64
2022/11/13 04:05:47;;;;;;;19.13;16.05;;;;;;;;;;5107523;28;20043;-64
2022/11/13 04:08:13;;;;;;;20.15;16.50;;;;;;;;;;5126889;28;20039;-64
2022/11/13 04:10:39;;;;;;;23.77;16.23;;;;;;;;;;5119283;28;20381;-64
2022/11/13 04:13:06;;;;;;;22.67;16.83;;;;;;;;;;5125269;28;20099;-64
2022/11/13 04:15:32;;;;;;;21.75;16.45;;;;;;;;;;5122890;28;20377;-64
2022/11/13 04:17:58;;;;;;;20.48;16.17;;;;;;;;;;5119041;28;20102;-64
2022/11/13 04:20:26;;;;;;;24.35;16.13;;;;;;;;;;5125012;28;20099;-64
2022/11/13 04:22:52;;;;;;;26.17;16.10;;;;;;;;;;5124845;28;20055;-64
2022/11/13 04:25:19;;;;;;;20.63;16.40;;;;;;;;;;5116462;28;20042;-64
2022/11/13 04:27:45;;;;;;;21.75;16.75;;;;;;;;;;5118869;28;20046;-64
2022/11/13 04:30:11;;;;;;;20.45;16.15;;;;;;;;;;5117595;28;20042;-65
2022/11/13 04:32:37;;;;;;;21.85;16.52;;;;;;;;;;5121206;28;20450;-64
2022/11/13 04:35:04;;;;;;;22.25;16.45;;;;;;;;;;5106570;28;20035;-64
2022/11/13 04:37:30;;;;;;;21.83;15.73;;;;;;;;;;5118169;28;20119;-64
2022/11/13 04:39:56;;;;;;;21.65;15.32;;;;;;;;;;5102090;28;20267;-64
2022/11/13 04:45:07;;;;;;;20.42;16.63;;;;;;;;;;5116168;28;20058;-64
2022/11/13 04:47:33;;;;;;;21.08;15.95;;;;;;;;;;5121339;28;20084;-64
2022/11/13 04:49:59;;;;;;;19.92;15.48;;;;;;;;;;5120547;28;20042;-64
2022/11/13 04:52:27;;;;;;;22.10;16.42;;;;;;;;;;5105754;28;20520;-64
2022/11/13 04:54:53;;;;;;;23.65;18.45;;;;;;;;;;5119456;28;20055;-64
2022/11/13 04:57:20;;;;;;;21.55;17.23;;;;;;;;;;5107230;28;20043;-64
2022/11/13 04:59:46;;;;;;;25.55;16.73;;;;;;;;;;5128267;27;20501;-64
2022/11/13 05:02:12;;;;;;;24.25;17.88;;;;;;;;;;5110602;27;20035;-64
2022/11/13 05:04:38;;;;;;;22.73;16.90;;;;;;;;;;5126766;27;20082;-64
2022/11/13 05:07:04;;;;;;;22.48;17.33;;;;;;;;;;5118427;27;20039;-64
2022/11/13 05:09:30;;;;;;;20.15;16.40;;;;;;;;;;5122494;27;20403;-64
2022/11/13 05:11:56;;;;;;;20.67;16.67;;;;;;;;;;5119633;27;20043;-64
2022/11/13 05:14:22;;;;;;;22.27;16.42;;;;;;;;;;5128310;27;20043;-64
2022/11/13 05:16:49;;;;;;;23.08;16.42;;;;;;;;;;5125701;27;20075;-64
2022/11/13 05:19:15;;;;;;;20.02;15.65;;;;;;;;;;5126592;27;20069;-64
2022/11/13 05:21:41;;;;;;;24.13;18.27;;;;;;;;;;5126918;27;20507;-64
2022/11/13 05:24:09;;;;;;;22.98;16.38;;;;;;;;;;5128406;27;20048;-63
2022/11/13 05:26:36;;;;;;;23.73;16.58;;;;;;;;;;5122774;27;20400;-64
2022/11/13 05:29:02;;;;;;;19.80;14.93;;;;;;;;;;5109082;27;20035;-64
2022/11/13 05:31:28;;;;;;;23.83;16.17;;;;;;;;;;5110564;27;20373;-64
2022/11/13 05:33:55;;;;;;;20.00;15.48;;;;;;;;;;5109838;27;20066;-64
2022/11/13 05:36:22;;;;;;;24.27;16.92;;;;;;;;;;5128363;27;20039;-64
2022/11/13 05:38:48;;;;;;;19.65;16.30;;;;;;;;;;5130268;27;20491;-64
2022/11/13 05:41:15;;;;;;;20.10;15.63;;;;;;;;;;5122593;27;20211;-64
2022/11/13 05:43:41;;;;;;;19.58;15.30;;;;;;;;;;5127010;27;20122;-64
2022/11/13 05:46:11;;;;;;;21.88;15.65;;;;;;;;;;5118983;27;20108;-64
2022/11/13 05:48:38;;;;;;;22.08;14.50;;;;;;;;;;5118801;27;20111;-64
2022/11/13 05:51:05;;;;;;;19.35;15.65;;;;;;;;;;5122601;27;20227;-64
2022/11/13 05:53:35;;;;;;;20.30;14.18;;;;;;;;;;5123276;27;20189;-64
2022/11/13 05:56:05;;;;;;;20.45;15.38;;;;;;;;;;5106353;27;20046;-63
2022/11/13 05:58:31;;;;;;;21.80;16.80;;;;;;;;;;5110599;27;20031;-64
2022/11/13 06:01:08;;;;;;;21.83;15.18;;;;;;;;;;5127472;27;20046;-64
2022/11/13 06:03:34;;;;;;;19.23;14.75;;;;;;;;;;5127942;27;20047;-64
2022/11/13 06:06:00;;;;;;;19.52;15.88;;;;;;;;;;5109874;27;20054;-64
2022/11/13 06:08:26;;;;;;;20.27;15.73;;;;;;;;;;5110737;27;20115;-64
2022/11/13 06:10:52;;;;;;;23.73;15.88;;;;;;;;;;5126587;27;20122;-64
2022/11/13 06:13:18;;;;;;;23.58;16.02;;;;;;;;;;5126836;27;20043;-65
2022/11/13 06:15:44;;;;;;;21.77;15.02;;;;;;;;;;5126412;27;20516;-64
2022/11/13 06:18:11;;;;;;;24.25;15.90;;;;;;;;;;5128897;27;20035;-64
2022/11/13 06:20:37;;;;;;;19.95;14.88;;;;;;;;;;5123715;27;20069;-64
2022/11/13 06:23:03;;;;;;;18.65;14.23;;;;;;;;;;5125315;27;20035;-64
2022/11/13 06:25:29;;;;;;;22.45;14.68;;;;;;;;;;5127418;27;20407;-64
2022/11/13 06:27:55;;;;;;;20.73;15.15;;;;;;;;;;5127855;27;20551;-64
2022/11/13 06:30:21;;;;;;;18.88;14.75;;;;;;;;;;5123759;27;20031;-64
2022/11/13 06:32:52;;;;;;;19.10;13.68;;;;;;;;;;5107948;27;20050;-64
2022/11/13 06:35:18;;;;;;;18.23;13.48;;;;;;;;;;5126621;27;20031;-64
2022/11/13 06:37:44;;;;;;;19.75;14.20;;;;;;;;;;5119546;27;20047;-64
2022/11/13 06:40:10;;;;;;;20.38;15.32;;;;;;;;;;5092122;27;20035;-64
2022/11/13 06:42:36;;;;;;;21.50;15.15;;;;;;;;;;5117987;27;20040;-63
2022/11/13 06:45:02;;;;;;;19.42;14.50;;;;;;;;;;5090146;27;20058;-65
2022/11/13 06:47:29;;;;;;;17.85;14.43;;;;;;;;;;5120964;27;20047;-64
2022/11/13 06:49:55;;;;;;;20.20;15.25;;;;;;;;;;5116001;27;20063;-64
2022/11/13 06:52:21;;;;;;;21.50;14.48;;;;;;;;;;5115553;27;20069;-64
2022/11/13 06:54:47;;;;;;;19.55;14.73;;;;;;;;;;5113147;27;20048;-64
2022/11/13 06:57:13;;;;;;;19.05;15.02;;;;;;;;;;5110379;27;20055;-64
2022/11/13 06:59:39;;;;;;;18.83;13.55;;;;;;;;;;5115523;27;20031;-64
2022/11/13 07:02:06;;;;;;;18.35;13.88;;;;;;;;;;5115247;27;20471;-64
2022/11/13 07:04:32;;;;;;;17.40;14.90;;;;;;;;;;5117879;27;20047;-64
2022/11/13 07:06:58;;;;;;;19.45;14.60;;;;;;;;;;5114786;27;20121;-64
2022/11/13 07:09:24;;;;;;;18.05;13.85;;;;;;;;;;5121197;27;20039;-64
2022/11/13 07:11:50;;;;;;;18.80;14.57;;;;;;;;;;5113023;27;20051;-64
2022/11/13 07:14:16;;;;;;;20.90;14.15;;;;;;;;;;5099390;27;20541;-64
2022/11/13 07:16:42;;;;;;;17.88;13.45;;;;;;;;;;5111381;27;20036;-64
2022/11/13 07:19:08;;;;;;;19.85;13.75;;;;;;;;;;5111742;27;20344;-64
2022/11/13 07:21:35;;;;;;;18.02;14.20;;;;;;;;;;5114458;27;20035;-64
2022/11/13 07:24:01;;;;;;;16.17;13.20;;;;;;;;;;5115768;27;20035;-64
2022/11/13 07:26:27;;;;;;;18.65;13.38;;;;;;;;;;5115266;27;20040;-64
2022/11/13 07:28:53;;;;;;;18.60;14.65;;;;;;;;;;5098581;28;20043;-64
2022/11/13 07:31:20;;;;;;;16.92;12.73;;;;;;;;;;5114063;27;20039;-64
2022/11/13 07:33:47;;;;;;;17.50;14.00;;;;;;;;;;5117364;27;20130;-64
2022/11/13 07:36:13;;;;;;;18.65;13.80;;;;;;;;;;5113377;27;20938;-64
2022/11/13 07:38:39;;;;;;;19.45;13.50;;;;;;;;;;5117557;27;20092;-64
2022/11/13 07:41:06;;;;;;;18.48;14.13;;;;;;;;;;5118388;27;20035;-64
2022/11/13 07:43:32;;;;;;;18.50;13.95;;;;;;;;;;5118233;27;20155;-64
2022/11/13 07:45:58;;;;;;;18.48;14.18;;;;;;;;;;5103821;28;20401;-64
2022/11/13 07:48:26;;;;;;;16.08;11.98;;;;;;;;;;5120540;27;20043;-64
2022/11/13 07:50:52;;;;;;;16.63;12.75;;;;;;;;;;5111649;28;20032;-64
2022/11/13 07:53:19;;;;;;;16.15;14.45;;;;;;;;;;5105707;28;20127;-63
2022/11/13 07:55:45;;;;;;;18.38;13.10;;;;;;;;;;5118914;28;20104;-63
2022/11/13 07:58:12;;;;;;;15.60;13.20;;;;;;;;;;5108067;28;20039;-64
2022/11/13 08:00:38;;;;;;;18.95;13.43;;;;;;;;;;5117984;28;20043;-63
2022/11/13 08:03:05;;;;;;;16.63;12.40;;;;;;;;;;5101520;28;20134;-64
2022/11/13 08:05:32;;;;;;;18.40;13.43;;;;;;;;;;5119573;28;20050;-64
2022/11/13 08:07:58;;;;;;;14.88;13.18;;;;;;;;;;5110223;28;20492;-64
2022/11/13 08:10:24;;;;;;;18.70;13.48;;;;;;;;;;5115935;28;20051;-64
2022/11/13 08:12:57;;;;;;;17.00;13.88;;;;;;;;;;5109296;28;20913;-64
2022/11/13 08:15:23;;;;;;;17.83;12.98;;;;;;;;;;5113436;28;20170;-64
2022/11/13 08:17:59;;;;;;;15.45;12.65;;;;;;;;;;5108456;28;20118;-64
2022/11/13 08:20:26;;;;;;;16.73;12.07;;;;;;;;;;5109858;28;20039;-64
2022/11/13 08:22:52;;;;;;;15.65;13.38;;;;;;;;;;5114613;28;20043;-64
2022/11/13 08:25:19;;;;;;;17.13;12.63;;;;;;;;;;5110326;28;20280;-63
2022/11/13 08:27:45;;;;;;;18.90;14.27;;;;;;;;;;5114595;28;20046;-64
2022/11/13 08:30:11;;;;;;;18.92;14.68;;;;;;;;;;5118130;28;20035;-63
2022/11/13 08:32:37;;;;;;;22.17;14.13;;;;;;;;;;5116084;28;20044;-64
2022/11/13 08:35:04;;;;;;;20.50;14.18;;;;;;;;;;5107998;27;20354;-64
2022/11/13 08:37:30;;;;;;;21.52;14.45;;;;;;;;;;5097912;27;20035;-64
2022/11/13 08:39:56;;;;;;;19.90;13.70;;;;;;;;;;5105523;27;21124;-64
2022/11/13 08:42:22;;;;;;;15.63;12.48;;;;;;;;;;5124864;27;20092;-64
2022/11/13 08:44:48;;;;;;;18.35;13.48;;;;;;;;;;5108913;27;20047;-64
2022/11/13 08:47:14;;;;;;;16.02;12.85;;;;;;;;;;5111118;27;20039;-64
2022/11/13 08:49:41;;;;;;;17.80;12.52;;;;;;;;;;5129309;27;20046;-65
2022/11/13 08:52:07;;;;;;;17.13;12.95;;;;;;;;;;5124576;27;20136;-64
2022/11/13 08:54:33;;;;;;;18.25;12.93;;;;;;;;;;5121606;27;20062;-64
2022/11/13 08:56:59;;;;;;;17.75;12.63;;;;;;;;;;5128520;27;20039;-64
2022/11/13 08:59:26;;;;;;;17.35;12.57;;;;;;;;;;5119826;27;20089;-64
2022/11/13 09:01:58;;;;;;;16.70;12.48;;;;;;;;;;5092050;27;20039;-64
2022/11/13 09:04:24;;;;;;;13.68;11.65;;;;;;;;;;5127881;27;20047;-64
2022/11/13 09:06:51;;;;;;;15.80;12.57;;;;;;;;;;5122671;27;20039;-65
2022/11/13 09:09:17;;;;;;;15.43;12.63;;;;;;;;;;5126829;27;20046;-64
2022/11/13 09:11:44;;;;;;;15.25;11.85;;;;;;;;;;5122399;27;20669;-64
2022/11/13 09:14:10;;;;;;;17.10;13.75;;;;;;;;;;5128839;27;20043;-64
2022/11/13 09:16:36;;;;;;;17.17;13.25;;;;;;;;;;5124093;27;20043;-64
2022/11/13 09:19:03;;;;;;;14.45;11.43;;;;;;;;;;5124470;27;20035;-64
2022/11/13 09:21:29;;;;;;;16.15;12.43;;;;;;;;;;5108774;27;20082;-64
2022/11/13 09:23:56;;;;;;;15.75;12.15;;;;;;;;;;5129341;27;20471;-64
2022/11/13 09:26:22;;;;;;;17.40;12.93;;;;;;;;;;5111851;27;20061;-64
2022/11/13 09:28:48;;;;;;;15.38;11.38;;;;;;;;;;5124895;27;20356;-64
2022/11/13 09:31:14;;;;;;;15.80;11.55;;;;;;;;;;5130026;27;20114;-64
2022/11/13 09:33:41;;;;;;;17.98;12.00;;;;;;;;;;5127768;27;20035;-64
2022/11/13 09:36:11;;;;;;;17.30;12.25;;;;;;;;;;5110655;27;20042;-63
2022/11/13 09:38:37;;;;;;;13.77;11.93;;;;;;;;;;5128137;27;20027;-64
2022/11/13 09:41:06;;;;;;;15.25;11.98;;;;;;;;;;5125694;27;20526;-64
2022/11/13 09:43:38;;;;;;;16.92;13.27;;;;;;;;;;5121567;27;20495;-64
2022/11/13 09:46:13;;;;;;;16.48;12.68;;;;;;;;;;5122474;27;20039;-64
2022/11/13 09:48:46;;;;;;;13.77;10.23;;;;;;;;;;5101860;27;20101;-64
2022/11/13 09:51:14;;;;;;;14.70;11.07;;;;;;;;;;5128656;27;20046;-64
2022/11/13 09:53:41;;;;;;;14.55;10.95;;;;;;;;;;5122469;27;20180;-63
2022/11/13 09:56:07;;;;;;;16.13;9.98;;;;;;;;;;5108915;27;20055;-63
2022/11/13 09:58:45;;;;;;;11.10;9.32;;;;;;;;;;5128722;27;20050;-63
2022/11/13 10:01:18;;;;;;;13.38;10.13;;;;;;;;;;5108261;27;20035;-63
2022/11/13 10:03:51;;;;;;;12.15;9.23;;;7.60;99.90;;;;;;5127488;27;20043;-64
2022/11/13 10:06:17;;;;;;;11.38;8.57;;;;;;;;;;5123619;27;20040;-64
2022/11/13 10:08:51;;;;;;;13.02;9.57;;;;;;;;;;5118910;27;20043;-64
2022/11/13 10:11:20;;;;;;;12.82;9.25;;;;;;;;;;5124320;27;20216;-63
2022/11/13 10:13:52;;;;;;;10.93;8.50;;;;;;;;;;5121159;27;20577;-64
2022/11/13 10:16:25;;;;;;;13.30;8.50;;;;;;;;;;5109420;27;20047;-64
2022/11/13 10:18:51;;;;;;;11.82;8.18;;;;;;;;;;5115113;27;20031;-64
2022/11/13 10:21:24;;;;;;;9.90;8.52;;;;;;;;;;5107912;28;20078;-63
2022/11/13 10:23:54;;;;;;;10.82;8.88;;;;;;;;;;5125532;27;20057;-64
2022/11/13 10:26:23;;;;;;;10.45;8.13;;;;;;;;;;5125055;27;20054;-64
2022/11/13 10:28:52;;;;;;;11.95;8.38;;;;;;;;;;5124760;27;20050;-63
2022/11/13 10:31:18;;;;;;;10.32;7.68;;;;;;;;;;5124083;27;20051;-64
2022/11/13 10:33:44;;;;;;;9.00;7.43;;;;;;;;;;5121750;27;20122;-63
2022/11/13 10:36:31;;;;;;;9.25;7.60;;;;;;;;;;5093218;27;20066;-63
2022/11/13 10:39:03;;;;;;;11.82;8.00;;;;;;;;;;5084215;27;20129;-63
2022/11/13 10:41:29;;;;;;;11.33;8.27;;;;;;;;;;5102436;27;20031;-63
2022/11/13 10:43:58;;;;;;;9.27;7.88;;;;;;;;;;5115343;27;20591;-63
2022/11/13 10:46:28;;;;;;;9.20;7.40;;;;;;;;;;5127256;27;20257;-64
2022/11/13 10:48:54;;;;;;;13.38;9.77;;;;;;;;;;5122612;27;20050;-64
2022/11/13 10:51:28;;;;;;;11.32;8.60;;;;;;;;;;5124712;27;20039;-63
2022/11/13 10:53:54;;;;;;;10.32;8.05;;;;;;;;;;5119933;27;20119;-64
2022/11/13 10:56:26;;;;;;;9.63;7.68;;;;;;;;;;5124759;27;20055;-63
2022/11/13 10:58:59;;;;;;;10.80;7.60;;;;;;;;;;5104259;27;21500;-64
2022/11/13 11:01:25;;;;;;;10.35;7.88;;;;;;;;;;5122735;27;20118;-64
2022/11/13 11:03:52;;;;;;;9.55;7.05;;;;;;;;;;5106688;27;20096;-64
2022/11/13 11:06:18;;;;;;;8.98;6.97;;;;;;;;;;5119571;27;20108;-63
2022/11/13 11:08:43;;;;;;;10.18;6.03;;;10.30;99.90;;;;;;5119120;27;20050;-64
2022/11/13 11:14:18;;;;;;;8.93;6.93;;;;;;;;;;5124693;27;20043;-64
2022/11/13 11:16:44;;;;;;;8.27;6.05;;;;;;;;;;5120106;27;20043;-64
2022/11/13 11:19:12;;;;;;;8.07;6.28;;;;;;;;;;5124891;27;20043;-63
2022/11/13 11:21:40;;;;;;;8.35;6.47;;;;;;;;;;5114246;27;20049;-64
2022/11/13 11:24:16;;;;;;;7.75;6.03;;;;;;;;;;5125955;27;20039;-63
2022/11/13 11:27:03;;;;;;;8.00;7.00;;;;;;;;;;5123724;27;20077;-63
2022/11/13 11:29:38;;;;;;;12.65;6.93;;;;;;;;;;5123189;27;20358;-63
2022/11/13 11:32:16;;;;;;;7.78;6.32;;;;;;;;;;5104627;28;20048;-63
2022/11/13 11:34:44;;;;;;;17.02;7.32;;;;;;;;;;5118792;27;20113;-63
2022/11/13 11:37:15;;;;;;;7.00;6.07;;;;;;;;;;5123510;27;20061;-63
2022/11/13 11:39:46;;;;;;;8.32;6.40;;;;;;;;;;5123669;27;20066;-63
2022/11/13 11:42:18;;;;;;;7.97;5.78;;;;;;;;;;5114869;27;20054;-63
2022/11/13 11:44:52;;;;;;;8.60;6.45;;;;;;;;;;5104800;28;20263;-63
2022/11/13 11:47:18;;;;;;;8.40;6.90;;;;;;;;;;5121634;27;20054;-63
2022/11/13 11:49:44;;;;;;;7.57;6.75;;;;;;;;;;5126140;27;20122;-63
2022/11/13 11:52:29;;;;;;;8.90;6.75;;;;;;;;;;5120336;27;20039;-63
2022/11/13 11:55:02;;;;;;;7.85;6.75;;;;;;;;;;5120518;27;20056;-63
2022/11/13 11:57:47;;;;;;;8.48;7.30;;;;;;;;;;5125003;28;20042;-63
2022/11/13 12:00:18;;;;;;;12.35;7.10;;;;;;;;;;5124559;28;20031;-63
2022/11/13 12:03:02;;;;;;;7.68;6.82;;;;;;;;;;5122642;28;20043;-63
2022/11/13 12:05:35;;;;;;;8.98;6.75;;;;;;;;;;5125706;28;20509;-63
2022/11/13 12:08:10;;;;;;;6.60;5.90;;;;;;;;;;5113571;27;20130;-63
2022/11/13 12:10:39;;;;;;;6.80;5.85;;;;;;;;;;5126867;27;20039;-63
2022/11/13 12:13:05;;;;;;;7.38;5.97;;;;;;;;;;5129946;27;20043;-64
2022/11/13 12:15:43;;;;;;;8.52;6.97;;;;;;;;;;5129705;27;20035;-63
2022/11/13 12:18:09;;;;;;;9.15;5.82;;;;;;;;;;5129233;27;20452;-63
2022/11/13 12:21:02;;;;;;;8.73;6.32;;;;;;;;;;5130196;27;20500;-63
2022/11/13 12:23:46;;;;;;;8.38;6.78;;;;;;;;;;5102753;27;20295;-63
2022/11/13 12:26:15;;;;;;;8.73;6.97;;;;;;;;;;5116034;27;20399;-63
2022/11/13 12:28:50;;;;;;;8.73;6.10;;;;;;;;;;5105621;27;20031;-64
2022/11/13 12:31:26;;;;;;;7.93;6.70;;;;;;;;;;5119976;27;20050;-63
2022/11/13 12:34:19;;;;;;;8.32;6.55;;;;;;;;;;5116845;27;20097;-63
2022/11/13 12:36:45;;;;;;;8.07;5.68;;;;;;;;;;5101208;27;20043;-64
2022/11/13 12:39:11;;;;;;;7.50;6.28;;;;;;;;;;5121994;27;20035;-63
2022/11/13 12:41:40;;;;;;;9.13;6.80;;;;;;;;;;5095247;27;20061;-64
2022/11/13 12:44:19;;;;;;;8.13;6.18;;;;;;;;;;5122712;27;20057;-63
2022/11/13 12:46:47;;;;;;;9.00;6.38;;;;;;;;;;5123769;27;20115;-63
2022/11/13 12:49:25;;;;;;;9.02;6.90;;;;;;;;;;5127310;27;20068;-63
2022/11/13 12:51:54;;;;;;;8.07;6.18;;;;;;;;;;5122486;27;20039;-64
2022/11/13 12:54:31;;;;;;;8.20;5.93;;;;;;;;;;5119251;27;20076;-64
2022/11/13 12:57:12;;;;;;;6.60;5.65;;;;;;;;;;5104062;27;20459;-65
2022/11/13 12:59:43;;;;;;;9.52;6.32;;;;;;;;;;5105883;28;20046;-64
2022/11/13 13:02:19;;;;;;;7.43;5.72;;;;;;;;;;5121778;27;20093;-64
2022/11/13 13:05:06;;;;;;;9.68;6.30;;;;;;;;;;5116056;27;20051;-64
2022/11/13 13:07:51;;;;;;;12.10;6.63;;;;;;;;;;5123826;27;20055;-64
2022/11/13 13:10:28;;;;;;;8.23;6.65;;;;;;;;;;5115556;27;20044;-63
2022/11/13 13:13:00;;;;;;;7.15;5.75;;;;;;;;;;5119688;27;20395;-64
2022/11/13 13:15:34;;;;;;;8.00;5.68;;;;;;;;;;5121861;27;20492;-64
2022/11/13 13:18:03;;;;;;;7.90;7.10;;;;;;;;;;5124454;27;20039;-64
2022/11/13 13:20:35;;;;;;;9.65;6.72;;;13.40;99.90;;;;;;5118286;27;20698;-64
2022/11/13 13:23:02;;;;;;;7.80;6.77;;;15.80;99.90;;;;;;5097679;27;20050;-64
2022/11/13 13:25:28;;;;;;;8.00;6.25;;;;;;;;;;5123244;27;20281;-64
2022/11/13 13:27:58;;;;;;;9.13;6.07;;;16.90;99.90;;;;;;5108417;27;20311;-64
2022/11/13 13:30:25;;;;;;;7.53;5.57;;;;;;;;;;5122647;27;20049;-64
2022/11/13 13:33:15;;;;;;;8.45;5.93;;;20.00;99.10;;;;;;5113644;27;20040;-64
2022/11/13 13:35:42;;;;;;;8.50;6.97;;;;;;;;;;5099321;27;20039;-64
2022/11/13 13:38:39;;;;;;;7.50;5.55;;;24.50;91.90;;;;;;5121971;27;20042;-64
2022/11/13 13:41:16;;;;;;;8.88;6.75;;;24.30;92.00;;;;;;5104421;27;20047;-64
2022/11/13 13:43:44;;;;;;;7.15;6.40;;;24.30;88.60;;;;;;5117930;27;20110;-64
2022/11/13 13:46:17;;;;;;;8.65;7.25;;;23.50;88.80;;;;;;5120794;27;20051;-64
2022/11/13 13:48:46;;;;;;;7.80;6.07;;;22.50;86.10;;;;;;5125703;27;20163;-64
2022/11/13 13:51:51;;;;;;;9.20;6.82;;;21.40;89.50;;;;;;5123875;27;20075;-64
2022/11/13 13:54:25;;;;;;;7.80;6.35;;;;;;;;;;5046563;28;20049;-64
2022/11/13 13:56:52;;;;;;;7.35;6.60;;;;;;;;;;5027680;28;20102;-64
2022/11/13 13:59:37;;;;;;;7.95;6.38;;;;;;;;;;5086879;27;20070;-64
2022/11/13 14:02:12;;;;;;;7.13;6.35;;;;;;;;;;5121726;27;20442;-64
2022/11/13 14:04:44;;;;;;;8.93;6.88;;;;;;;;;;5118817;27;20248;-64
2022/11/13 14:07:37;;;;;;;7.10;5.93;;;;;;;;;;5121513;27;20043;-64
2022/11/13 14:10:06;;;;;;;10.18;6.97;;;;;;;;;;5122189;27;20363;-64
2022/11/13 14:12:33;;;;;;;9.23;7.03;;;;;;;;;;5114266;27;20136;-64
2022/11/13 14:14:59;;;;;;;7.78;6.95;;;;;;;;;;5114880;27;20043;-64
2022/11/13 14:17:26;;;;;;;8.95;7.43;;;;;;;;;;5122810;27;20039;-64
2022/11/13 14:19:53;;;;;;;8.50;6.95;;;;;;;;;;5125163;27;20484;-64
2022/11/13 14:22:19;;;;;;;9.43;7.32;;;;;;;;;;5112882;27;20399;-64
2022/11/13 14:24:47;;;;;;;10.80;7.50;;;;;;;;;;5121396;27;20044;-64
2022/11/13 14:27:17;;;;;;;9.18;6.97;;;;;;;;;;5125603;27;20035;-64
2022/11/13 14:29:47;;;;;;;10.60;7.70;;;;;;;;;;5115571;27;20070;-64
2022/11/13 14:32:15;;;;;;;8.55;7.15;;;;;;;;;;5123174;27;20126;-64